Fultonham, Ohio
Current Conditions -  °F | °C
As of 6:53 AM on Sunday 23 Nov 2014 (Local Time) from KZZV Reporting Station
Overcast Overcast  
Wind Chill: 42°   Ceiling: 9000
Heat Index: 44°   Visibility: 10mi
Dew Point: 27°   Wind: 5mph
Humidity: 51%   Direction: 130°SE
Pressure: 30.06"   Gusts: NA
Location:  39.86°N, 82.14°W
Report Text: KZZV 231153Z AUTO 13004KT 10SM FEW037 OVC090 07/M03 A3006 RMK AO2 SLP182 70005 T00671028 10094 20061 58005
Loading
Personal Weather Stations






























Interactive Weather Map New forecast layout! Learn more

10-Day Weather Forecast

Advertisements
Track Severe Weather on mobile